Vancourt, Texas
Current Conditions -  °F | °C
As of 2:51 AM on Friday 31 Oct 2014 (Local Time) from KSJT Reporting Station
Few Clouds Few Clouds  
Wind Chill: 68°   Ceiling: Unl
Heat Index: 68°   Visibility: 10mi
Dew Point: 59°   Wind: 15mph
Humidity: 73%   Direction: 50°NE
Pressure: 30.23"   Gusts: NA
Location:  31.34°N, 100.18°W
Report Text: KSJT 310751Z AUTO 05013KT 10SM FEW070 20/15 A3023 RMK AO2 SLP217 T02000150
Loading
Personal Weather Stations






























Interactive Weather Map
Tropical Storm Tracking
New forecast layout! Learn more

10-Day Weather Forecast

Advertisements
Track Severe Weather on mobile